sensor_id;sensor_type;location;lat;lon;timestamp;pressure;altitude;pressure_sealevel;temperature;humidity
17781;BME280;8498;52.516;13.790;2023-07-31T00:03:16;100583.22;;;17.93;92.95
17781;BME280;8498;52.516;13.790;2023-07-31T00:08:38;100594.28;;;17.90;94.13
17781;BME280;8498;52.516;13.790;2023-07-31T00:14:01;100588.53;;;17.85;93.79
17781;BME280;8498;52.516;13.790;2023-07-31T00:19:23;100591.66;;;17.80;93.48
17781;BME280;8498;52.516;13.790;2023-07-31T00:24:46;100593.66;;;17.78;93.78
17781;BME280;8498;52.516;13.790;2023-07-31T00:30:08;100589.06;;;17.71;94.27
17781;BME280;8498;52.516;13.790;2023-07-31T00:35:31;100575.91;;;17.68;93.91
17781;BME280;8498;52.516;13.790;2023-07-31T00:40:53;100571.13;;;17.61;94.05
17781;BME280;8498;52.516;13.790;2023-07-31T00:46:16;100558.63;;;17.52;94.94
17781;BME280;8498;52.516;13.790;2023-07-31T00:51:38;100547.31;;;17.49;95.65
17781;BME280;8498;52.516;13.790;2023-07-31T00:57:01;100545.47;;;17.49;96.42
17781;BME280;8498;52.516;13.790;2023-07-31T01:02:24;100543.09;;;17.46;96.50
17781;BME280;8498;52.516;13.790;2023-07-31T01:07:56;100545.53;;;17.40;97.50
17781;BME280;8498;52.516;13.790;2023-07-31T01:13:25;100536.78;;;17.38;97.83
17781;BME280;8498;52.516;13.790;2023-07-31T01:18:47;100534.41;;;17.35;98.63
17781;BME280;8498;52.516;13.790;2023-07-31T01:24:23;100540.19;;;17.40;98.59
17781;BME280;8498;52.516;13.790;2023-07-31T01:29:58;100533.81;;;17.41;99.56
17781;BME280;8498;52.516;13.790;2023-07-31T01:35:22;100541.72;;;17.42;99.30
17781;BME280;8498;52.516;13.790;2023-07-31T01:40:44;100533.53;;;17.44;98.45
17781;BME280;8498;52.516;13.790;2023-07-31T01:46:07;100524.44;;;17.45;99.98
17781;BME280;8498;52.516;13.790;2023-07-31T01:51:29;100517.63;;;17.50;100.00
17781;BME280;8498;52.516;13.790;2023-07-31T01:56:56;100516.78;;;17.50;100.00
17781;BME280;8498;52.516;13.790;2023-07-31T02:02:19;100499.81;;;17.49;100.00
17781;BME280;8498;52.516;13.790;2023-07-31T02:07:42;100499.41;;;17.44;100.00
17781;BME280;8498;52.516;13.790;2023-07-31T02:13:05;100511.19;;;17.43;100.00
17781;BME280;8498;52.516;13.790;2023-07-31T02:18:27;100509.78;;;17.39;100.00
17781;BME280;8498;52.516;13.790;2023-07-31T02:23:50;100511.78;;;17.37;100.00
17781;BME280;8498;52.516;13.790;2023-07-31T02:29:14;100511.63;;;17.39;100.00
17781;BME280;8498;52.516;13.790;2023-07-31T02:34:36;100507.09;;;17.39;100.00
17781;BME280;8498;52.516;13.790;2023-07-31T02:39:58;100490.84;;;17.41;100.00
17781;BME280;8498;52.516;13.790;2023-07-31T02:45:23;100478.41;;;17.40;100.00
17781;BME280;8498;52.516;13.790;2023-07-31T02:50:47;100476.19;;;17.35;100.00
17781;BME280;8498;52.516;13.790;2023-07-31T02:56:10;100481.53;;;17.35;100.00
17781;BME280;8498;52.516;13.790;2023-07-31T03:01:32;100473.50;;;17.35;100.00
17781;BME280;8498;52.516;13.790;2023-07-31T03:06:55;100469.59;;;17.30;100.00
17781;BME280;8498;52.516;13.790;2023-07-31T03:12:17;100469.88;;;17.27;100.00
17781;BME280;8498;52.516;13.790;2023-07-31T03:17:41;100472.41;;;17.28;100.00
17781;BME280;8498;52.516;13.790;2023-07-31T03:23:04;100478.50;;;17.30;100.00
17781;BME280;8498;52.516;13.790;2023-07-31T03:28:26;100471.44;;;17.29;100.00
17781;BME280;8498;52.516;13.790;2023-07-31T03:33:48;100473.81;;;17.32;100.00
17781;BME280;8498;52.516;13.790;2023-07-31T03:39:11;100468.31;;;17.34;100.00
17781;BME280;8498;52.516;13.790;2023-07-31T03:44:33;100468.44;;;17.32;100.00
17781;BME280;8498;52.516;13.790;2023-07-31T03:49:56;100459.91;;;17.37;100.00
17781;BME280;8498;52.516;13.790;2023-07-31T03:55:18;100458.78;;;17.39;100.00
17781;BME280;8498;52.516;13.790;2023-07-31T04:00:41;100450.03;;;17.37;100.00
17781;BME280;8498;52.516;13.790;2023-07-31T04:06:03;100441.13;;;17.37;100.00
17781;BME280;8498;52.516;13.790;2023-07-31T04:11:25;100436.28;;;17.40;100.00
17781;BME280;8498;52.516;13.790;2023-07-31T04:16:48;100435.44;;;17.40;100.00
17781;BME280;8498;52.516;13.790;2023-07-31T04:22:11;100428.94;;;17.42;100.00
17781;BME280;8498;52.516;13.790;2023-07-31T04:27:33;100426.25;;;17.42;100.00
17781;BME280;8498;52.516;13.790;2023-07-31T04:32:56;100420.41;;;17.47;100.00
17781;BME280;8498;52.516;13.790;2023-07-31T04:38:20;100419.56;;;17.46;100.00
17781;BME280;8498;52.516;13.790;2023-07-31T04:43:42;100434.72;;;17.55;100.00
17781;BME280;8498;52.516;13.790;2023-07-31T04:49:05;100414.94;;;17.56;100.00
17781;BME280;8498;52.516;13.790;2023-07-31T04:54:27;100419.00;;;17.60;100.00
17781;BME280;8498;52.516;13.790;2023-07-31T04:59:50;100414.94;;;17.56;100.00
17781;BME280;8498;52.516;13.790;2023-07-31T05:05:13;100409.00;;;17.63;100.00
17781;BME280;8498;52.516;13.790;2023-07-31T05:10:38;100407.41;;;17.60;100.00
17781;BME280;8498;52.516;13.790;2023-07-31T05:16:00;100412.38;;;17.65;100.00
17781;BME280;8498;52.516;13.790;2023-07-31T05:21:24;100409.03;;;17.71;100.00
17781;BME280;8498;52.516;13.790;2023-07-31T05:26:47;100407.94;;;17.81;100.00
17781;BME280;8498;52.516;13.790;2023-07-31T05:32:09;100406.16;;;17.90;100.00
17781;BME280;8498;52.516;13.790;2023-07-31T05:37:31;100393.94;;;17.95;100.00
17781;BME280;8498;52.516;13.790;2023-07-31T05:42:54;100402.84;;;17.96;100.00
17781;BME280;8498;52.516;13.790;2023-07-31T05:48:16;100399.03;;;17.81;100.00
17781;BME280;8498;52.516;13.790;2023-07-31T05:53:39;100397.41;;;17.88;100.00
17781;BME280;8498;52.516;13.790;2023-07-31T05:59:03;100399.78;;;17.91;100.00
17781;BME280;8498;52.516;13.790;2023-07-31T06:04:26;100388.88;;;17.92;100.00
17781;BME280;8498;52.516;13.790;2023-07-31T06:09:49;100406.41;;;17.79;100.00
17781;BME280;8498;52.516;13.790;2023-07-31T06:15:12;100390.41;;;17.95;100.00
17781;BME280;8498;52.516;13.790;2023-07-31T06:20:34;100389.06;;;17.99;100.00
17781;BME280;8498;52.516;13.790;2023-07-31T06:25:57;100389.06;;;17.99;100.00
17781;BME280;8498;52.516;13.790;2023-07-31T06:31:19;100394.72;;;17.88;100.00
17781;BME280;8498;52.516;13.790;2023-07-31T06:36:45;100387.72;;;17.95;100.00
17781;BME280;8498;52.516;13.790;2023-07-31T06:42:08;100387.72;;;17.95;100.00
17781;BME280;8498;52.516;13.790;2023-07-31T06:47:31;100387.03;;;17.93;100.00
17781;BME280;8498;52.516;13.790;2023-07-31T06:52:54;100388.72;;;17.94;100.00
17781;BME280;8498;52.516;13.790;2023-07-31T06:58:17;100383.06;;;18.05;100.00
17781;BME280;8498;52.516;13.790;2023-07-31T07:03:40;100383.91;;;18.06;100.00
17781;BME280;8498;52.516;13.790;2023-07-31T07:09:08;100380.31;;;18.23;100.00
17781;BME280;8498;52.516;13.790;2023-07-31T07:14:30;100376.47;;;18.33;100.00
17781;BME280;8498;52.516;13.790;2023-07-31T07:19:53;100370.91;;;18.27;100.00
17781;BME280;8498;52.516;13.790;2023-07-31T07:25:17;100373.03;;;18.15;100.00
17781;BME280;8498;52.516;13.790;2023-07-31T07:30:39;100386.38;;;18.25;100.00
17781;BME280;8498;52.516;13.790;2023-07-31T07:36:02;100373.81;;;18.08;100.00
17781;BME280;8498;52.516;13.790;2023-07-31T07:41:25;100373.50;;;18.11;100.00
17781;BME280;8498;52.516;13.790;2023-07-31T07:46:47;100378.06;;;18.18;100.00
17781;BME280;8498;52.516;13.790;2023-07-31T07:52:10;100373.06;;;18.23;100.00
17781;BME280;8498;52.516;13.790;2023-07-31T07:57:32;100357.38;;;18.45;100.00
17781;BME280;8498;52.516;13.790;2023-07-31T08:02:54;100359.91;;;18.54;100.00
17781;BME280;8498;52.516;13.790;2023-07-31T08:08:19;100353.94;;;18.68;100.00
17781;BME280;8498;52.516;13.790;2023-07-31T08:13:42;100354.81;;;18.85;100.00
17781;BME280;8498;52.516;13.790;2023-07-31T08:19:04;100359.88;;;18.96;100.00
17781;BME280;8498;52.516;13.790;2023-07-31T08:24:27;100348.59;;;18.93;100.00
17781;BME280;8498;52.516;13.790;2023-07-31T08:29:52;100343.56;;;18.98;100.00
17781;BME280;8498;52.516;13.790;2023-07-31T08:35:14;100340.34;;;18.94;100.00
17781;BME280;8498;52.516;13.790;2023-07-31T08:40:37;100333.97;;;19.12;100.00
17781;BME280;8498;52.516;13.790;2023-07-31T08:46:01;100327.56;;;19.13;100.00
17781;BME280;8498;52.516;13.790;2023-07-31T08:51:26;100321.19;;;19.14;100.00
17781;BME280;8498;52.516;13.790;2023-07-31T08:56:49;100330.94;;;19.06;100.00
17781;BME280;8498;52.516;13.790;2023-07-31T09:02:13;100338.66;;;18.85;100.00
17781;BME280;8498;52.516;13.790;2023-07-31T09:07:37;100336.81;;;18.94;100.00
17781;BME280;8498;52.516;13.790;2023-07-31T09:13:00;100336.97;;;18.92;100.00
17781;BME280;8498;52.516;13.790;2023-07-31T09:18:24;100346.25;;;19.06;100.00
17781;BME280;8498;52.516;13.790;2023-07-31T09:23:47;100332.63;;;19.40;100.00
17781;BME280;8498;52.516;13.790;2023-07-31T09:29:19;100330.94;;;19.71;100.00
17781;BME280;8498;52.516;13.790;2023-07-31T09:34:41;100331.75;;;19.64;100.00
17781;BME280;8498;52.516;13.790;2023-07-31T09:40:04;100327.94;;;19.50;100.00
17781;BME280;8498;52.516;13.790;2023-07-31T09:45:27;100327.59;;;19.61;100.00
17781;BME280;8498;52.516;13.790;2023-07-31T09:51:04;100323.50;;;19.73;100.00
17781;BME280;8498;52.516;13.790;2023-07-31T09:56:27;100321.66;;;19.66;99.75
17781;BME280;8498;52.516;13.790;2023-07-31T10:01:49;100326.38;;;19.64;100.00
17781;BME280;8498;52.516;13.790;2023-07-31T10:07:13;100328.91;;;19.33;100.00
17781;BME280;8498;52.516;13.790;2023-07-31T10:12:38;100321.19;;;19.30;100.00
17781;BME280;8498;52.516;13.790;2023-07-31T10:18:05;100316.13;;;19.35;99.32
17781;BME280;8498;52.516;13.790;2023-07-31T10:23:28;100299.78;;;19.69;97.79
17781;BME280;8498;52.516;13.790;2023-07-31T10:28:52;100300.53;;;19.86;95.73
17781;BME280;8498;52.516;13.790;2023-07-31T10:34:15;100296.09;;;20.09;94.64
17781;BME280;8498;52.516;13.790;2023-07-31T10:39:37;100296.50;;;19.90;95.13
17781;BME280;8498;52.516;13.790;2023-07-31T10:45:06;100286.06;;;19.87;95.29
17781;BME280;8498;52.516;13.790;2023-07-31T10:50:30;100299.91;;;19.75;94.68
17781;BME280;8498;52.516;13.790;2023-07-31T10:55:59;100299.88;;;19.84;98.62
17781;BME280;8498;52.516;13.790;2023-07-31T11:01:22;100292.09;;;19.97;100.00
17781;BME280;8498;52.516;13.790;2023-07-31T11:06:55;100284.09;;;20.50;100.00
17781;BME280;8498;52.516;13.790;2023-07-31T11:12:19;100260.59;;;21.28;96.71
17781;BME280;8498;52.516;13.790;2023-07-31T11:17:41;100252.69;;;21.55;90.85
17781;BME280;8498;52.516;13.790;2023-07-31T11:23:07;100243.34;;;21.43;90.01
17781;BME280;8498;52.516;13.790;2023-07-31T11:28:32;100240.66;;;21.58;87.15
17781;BME280;8498;52.516;13.790;2023-07-31T11:34:08;100233.66;;;21.78;85.67
17781;BME280;8498;52.516;13.790;2023-07-31T11:39:30;100226.94;;;21.74;82.50
17781;BME280;8498;52.516;13.790;2023-07-31T11:44:53;100236.63;;;21.83;83.45
17781;BME280;8498;52.516;13.790;2023-07-31T11:50:16;100218.19;;;22.23;82.74
17781;BME280;8498;52.516;13.790;2023-07-31T11:55:39;100218.78;;;22.18;78.56
17781;BME280;8498;52.516;13.790;2023-07-31T12:01:02;100217.47;;;22.29;74.50
17781;BME280;8498;52.516;13.790;2023-07-31T12:06:37;100217.06;;;22.11;70.52
17781;BME280;8498;52.516;13.790;2023-07-31T12:12:00;100218.44;;;22.07;71.00
17781;BME280;8498;52.516;13.790;2023-07-31T12:17:24;100210.69;;;22.04;73.26
17781;BME280;8498;52.516;13.790;2023-07-31T12:22:47;100215.56;;;21.79;74.11
17781;BME280;8498;52.516;13.790;2023-07-31T12:28:10;100205.31;;;21.74;75.42
17781;BME280;8498;52.516;13.790;2023-07-31T12:33:37;100200.75;;;21.60;76.33
17781;BME280;8498;52.516;13.790;2023-07-31T12:39:01;100192.84;;;21.58;76.91
17781;BME280;8498;52.516;13.790;2023-07-31T12:44:23;100186.47;;;21.81;75.59
17781;BME280;8498;52.516;13.790;2023-07-31T12:49:46;100188.06;;;21.75;75.34
17781;BME280;8498;52.516;13.790;2023-07-31T12:55:09;100180.31;;;21.72;75.31
17781;BME280;8498;52.516;13.790;2023-07-31T13:00:32;100194.91;;;21.56;75.67
17781;BME280;8498;52.516;13.790;2023-07-31T13:05:55;100170.72;;;21.84;74.70
17781;BME280;8498;52.516;13.790;2023-07-31T13:11:18;100162.19;;;22.38;74.83
17781;BME280;8498;52.516;13.790;2023-07-31T13:16:40;100152.81;;;22.62;71.60
17781;BME280;8498;52.516;13.790;2023-07-31T13:22:04;100155.31;;;22.85;70.52
17781;BME280;8498;52.516;13.790;2023-07-31T13:27:29;100151.06;;;22.54;70.45
17781;BME280;8498;52.516;13.790;2023-07-31T13:32:53;100151.69;;;22.28;71.76
17781;BME280;8498;52.516;13.790;2023-07-31T13:38:15;100145.94;;;22.17;71.55
17781;BME280;8498;52.516;13.790;2023-07-31T13:43:38;100146.53;;;21.97;72.21
17781;BME280;8498;52.516;13.790;2023-07-31T13:49:01;100152.22;;;22.03;73.72
17781;BME280;8498;52.516;13.790;2023-07-31T13:54:23;100145.59;;;22.05;74.53
17781;BME280;8498;52.516;13.790;2023-07-31T13:59:47;100138.59;;;22.11;74.65
17781;BME280;8498;52.516;13.790;2023-07-31T14:05:09;100141.94;;;22.13;75.69
17781;BME280;8498;52.516;13.790;2023-07-31T14:10:32;100134.31;;;22.44;73.80
17781;BME280;8498;52.516;13.790;2023-07-31T14:15:54;100116.59;;;22.63;74.15
17781;BME280;8498;52.516;13.790;2023-07-31T14:21:17;100112.59;;;22.80;71.89
17781;BME280;8498;52.516;13.790;2023-07-31T14:26:41;100118.31;;;22.92;72.05
17781;BME280;8498;52.516;13.790;2023-07-31T14:32:04;100116.31;;;22.79;72.50
17781;BME280;8498;52.516;13.790;2023-07-31T14:37:36;100109.53;;;22.68;72.58
17781;BME280;8498;52.516;13.790;2023-07-31T14:42:59;100100.28;;;22.78;72.17
17781;BME280;8498;52.516;13.790;2023-07-31T14:48:22;100103.63;;;22.80;71.31
17781;BME280;8498;52.516;13.790;2023-07-31T14:53:44;100094.81;;;22.50;72.54
17781;BME280;8498;52.516;13.790;2023-07-31T14:59:07;100089.47;;;22.56;73.78
17781;BME280;8498;52.516;13.790;2023-07-31T15:04:30;100085.75;;;22.64;73.04
17781;BME280;8498;52.516;13.790;2023-07-31T15:09:52;100077.91;;;22.69;73.63
17781;BME280;8498;52.516;13.790;2023-07-31T15:15:15;100070.97;;;22.60;74.38
17781;BME280;8498;52.516;13.790;2023-07-31T15:20:38;100067.44;;;22.66;74.11
17781;BME280;8498;52.516;13.790;2023-07-31T15:26:00;100063.25;;;22.63;73.96
17781;BME280;8498;52.516;13.790;2023-07-31T15:31:24;100067.22;;;22.61;74.73
17781;BME280;8498;52.516;13.790;2023-07-31T15:36:46;100050.28;;;22.52;74.13
17781;BME280;8498;52.516;13.790;2023-07-31T15:42:09;100045.66;;;22.46;75.06
17781;BME280;8498;52.516;13.790;2023-07-31T15:47:31;100043.22;;;22.51;76.29
17781;BME280;8498;52.516;13.790;2023-07-31T15:52:54;100043.56;;;22.42;75.11
17781;BME280;8498;52.516;13.790;2023-07-31T15:58:17;100031.88;;;22.41;73.59
17781;BME280;8498;52.516;13.790;2023-07-31T16:03:40;100029.13;;;22.34;74.17
17781;BME280;8498;52.516;13.790;2023-07-31T16:09:02;100032.41;;;22.30;77.49
17781;BME280;8498;52.516;13.790;2023-07-31T16:14:24;100023.91;;;22.12;78.73
17781;BME280;8498;52.516;13.790;2023-07-31T16:19:47;100020.63;;;21.95;81.78
17781;BME280;8498;52.516;13.790;2023-07-31T16:25:10;100017.09;;;21.94;83.29
17781;BME280;8498;52.516;13.790;2023-07-31T16:30:32;100014.34;;;21.88;83.81
17781;BME280;8498;52.516;13.790;2023-07-31T16:35:54;100021.34;;;21.82;83.05
17781;BME280;8498;52.516;13.790;2023-07-31T16:41:17;100033.59;;;21.78;82.32
17781;BME280;8498;52.516;13.790;2023-07-31T16:46:40;100040.03;;;21.77;82.06
17781;BME280;8498;52.516;13.790;2023-07-31T16:52:03;100028.75;;;21.74;79.48
17781;BME280;8498;52.516;13.790;2023-07-31T16:57:25;100014.72;;;21.85;76.28
17781;BME280;8498;52.516;13.790;2023-07-31T17:02:48;100012.69;;;21.93;74.50
17781;BME280;8498;52.516;13.790;2023-07-31T17:08:11;99992.25;;;22.06;74.21
17781;BME280;8498;52.516;13.790;2023-07-31T17:13:35;99999.06;;;22.02;74.08
17781;BME280;8498;52.516;13.790;2023-07-31T17:18:57;99990.50;;;23.29;76.81
17781;BME280;8498;52.516;13.790;2023-07-31T17:24:20;99991.53;;;26.45;71.90
17781;BME280;8498;52.516;13.790;2023-07-31T17:29:42;99990.06;;;28.47;51.14
17781;BME280;8498;52.516;13.790;2023-07-31T17:35:05;99988.28;;;27.46;50.34
17781;BME280;8498;52.516;13.790;2023-07-31T17:40:28;99991.91;;;25.99;54.03
17781;BME280;8498;52.516;13.790;2023-07-31T17:45:51;99991.88;;;24.78;58.62
17781;BME280;8498;52.516;13.790;2023-07-31T17:51:14;99989.19;;;23.66;64.26
17781;BME280;8498;52.516;13.790;2023-07-31T17:56:36;99988.44;;;23.25;65.99
17781;BME280;8498;52.516;13.790;2023-07-31T18:02:01;99988.84;;;22.81;68.30
17781;BME280;8498;52.516;13.790;2023-07-31T18:07:27;99984.50;;;22.52;69.67
17781;BME280;8498;52.516;13.790;2023-07-31T18:12:49;99995.94;;;22.26;70.59
17781;BME280;8498;52.516;13.790;2023-07-31T18:18:13;99995.19;;;22.32;71.13
17781;BME280;8498;52.516;13.790;2023-07-31T18:23:36;100000.34;;;22.27;71.18
17781;BME280;8498;52.516;13.790;2023-07-31T18:28:59;99993.75;;;22.08;72.23
17781;BME280;8498;52.516;13.790;2023-07-31T18:34:22;99996.59;;;22.00;72.60
17781;BME280;8498;52.516;13.790;2023-07-31T18:39:45;99999.72;;;22.04;72.87
17781;BME280;8498;52.516;13.790;2023-07-31T18:45:07;99997.91;;;21.89;73.41
17781;BME280;8498;52.516;13.790;2023-07-31T18:50:30;99985.94;;;21.77;74.26
17781;BME280;8498;52.516;13.790;2023-07-31T18:55:53;99983.47;;;21.82;74.52
17781;BME280;8498;52.516;13.790;2023-07-31T19:01:15;99992.31;;;21.70;75.45
17781;BME280;8498;52.516;13.790;2023-07-31T19:06:38;99988.03;;;21.60;75.83
17781;BME280;8498;52.516;13.790;2023-07-31T19:12:02;99982.72;;;21.46;77.00
17781;BME280;8498;52.516;13.790;2023-07-31T19:17:25;99975.25;;;21.48;76.77
17781;BME280;8498;52.516;13.790;2023-07-31T19:22:48;99972.75;;;21.46;77.43
17781;BME280;8498;52.516;13.790;2023-07-31T19:33:32;99963.28;;;21.36;77.92
17781;BME280;8498;52.516;13.790;2023-07-31T19:38:54;99961.31;;;21.30;78.37
17781;BME280;8498;52.516;13.790;2023-07-31T19:44:17;99960.78;;;21.19;78.83
17781;BME280;8498;52.516;13.790;2023-07-31T19:49:40;99952.69;;;21.19;79.32
17781;BME280;8498;52.516;13.790;2023-07-31T19:55:03;99945.31;;;21.13;79.81
17781;BME280;8498;52.516;13.790;2023-07-31T20:00:25;99944.50;;;20.98;80.89
17781;BME280;8498;52.516;13.790;2023-07-31T20:05:48;99942.94;;;20.89;81.59
17781;BME280;8498;52.516;13.790;2023-07-31T20:11:11;99935.50;;;20.91;81.98
17781;BME280;8498;52.516;13.790;2023-07-31T20:16:34;99918.22;;;20.71;83.25
17781;BME280;8498;52.516;13.790;2023-07-31T20:22:01;99918.50;;;20.76;83.21
17781;BME280;8498;52.516;13.790;2023-07-31T20:27:23;99924.09;;;20.74;83.54
17781;BME280;8498;52.516;13.790;2023-07-31T20:32:46;99892.91;;;20.72;84.13
17781;BME280;8498;52.516;13.790;2023-07-31T20:38:08;99893.28;;;20.69;84.36
17781;BME280;8498;52.516;13.790;2023-07-31T20:43:31;99888.28;;;20.66;84.62
17781;BME280;8498;52.516;13.790;2023-07-31T20:48:53;99875.88;;;20.57;85.46
17781;BME280;8498;52.516;13.790;2023-07-31T20:54:16;99865.69;;;20.52;85.93
17781;BME280;8498;52.516;13.790;2023-07-31T20:59:39;99872.03;;;20.44;86.58
17781;BME280;8498;52.516;13.790;2023-07-31T21:05:01;99858.81;;;20.35;87.38
17781;BME280;8498;52.516;13.790;2023-07-31T21:10:23;99853.94;;;20.30;87.80
17781;BME280;8498;52.516;13.790;2023-07-31T21:15:46;99849.50;;;20.23;88.73
17781;BME280;8498;52.516;13.790;2023-07-31T21:21:09;99837.22;;;20.20;89.47
17781;BME280;8498;52.516;13.790;2023-07-31T21:26:32;99833.19;;;20.16;89.72
17781;BME280;8498;52.516;13.790;2023-07-31T21:31:55;99832.56;;;20.14;90.26
17781;BME280;8498;52.516;13.790;2023-07-31T21:37:19;99817.41;;;20.13;90.48
17781;BME280;8498;52.516;13.790;2023-07-31T21:42:41;99810.34;;;20.12;90.46
17781;BME280;8498;52.516;13.790;2023-07-31T21:48:04;99802.91;;;20.14;90.43
17781;BME280;8498;52.516;13.790;2023-07-31T21:53:26;99802.91;;;20.14;90.57
17781;BME280;8498;52.516;13.790;2023-07-31T21:58:48;99797.31;;;20.15;90.43
17781;BME280;8498;52.516;13.790;2023-07-31T22:04:11;99792.75;;;20.16;90.78
17781;BME280;8498;52.516;13.790;2023-07-31T22:09:33;99784.66;;;20.16;91.07
17781;BME280;8498;52.516;13.790;2023-07-31T22:14:56;99778.06;;;20.19;91.32
17781;BME280;8498;52.516;13.790;2023-07-31T22:20:18;99778.06;;;20.19;91.34
17781;BME280;8498;52.516;13.790;2023-07-31T22:25:40;99771.47;;;20.21;91.17
17781;BME280;8498;52.516;13.790;2023-07-31T22:31:03;99760.03;;;20.19;90.98
17781;BME280;8498;52.516;13.790;2023-07-31T22:36:25;99754.44;;;20.21;90.92
17781;BME280;8498;52.516;13.790;2023-07-31T22:41:48;99737.44;;;20.20;90.92
17781;BME280;8498;52.516;13.790;2023-07-31T22:47:10;99718.94;;;20.17;91.04
17781;BME280;8498;52.516;13.790;2023-07-31T22:52:33;99714.56;;;20.16;91.01
17781;BME280;8498;52.516;13.790;2023-07-31T22:57:56;99701.66;;;20.11;90.88
17781;BME280;8498;52.516;13.790;2023-07-31T23:03:18;99703.16;;;20.14;90.25
17781;BME280;8498;52.516;13.790;2023-07-31T23:08:40;99693.63;;;20.18;89.38
17781;BME280;8498;52.516;13.790;2023-07-31T23:14:03;99687.88;;;20.21;88.52
17781;BME280;8498;52.516;13.790;2023-07-31T23:19:26;99668.63;;;20.24;88.06
17781;BME280;8498;52.516;13.790;2023-07-31T23:24:49;99663.22;;;20.24;87.88
17781;BME280;8498;52.516;13.790;2023-07-31T23:30:12;99650.75;;;20.23;87.89
17781;BME280;8498;52.516;13.790;2023-07-31T23:35:34;99654.06;;;20.25;87.63
17781;BME280;8498;52.516;13.790;2023-07-31T23:40:57;99641.44;;;20.26;86.84
17781;BME280;8498;52.516;13.790;2023-07-31T23:46:19;99638.72;;;20.26;87.61
17781;BME280;8498;52.516;13.790;2023-07-31T23:51:42;99626.88;;;20.20;88.70
17781;BME280;8498;52.516;13.790;2023-07-31T23:57:05;99633.31;;;20.04;89.96
